Time;durP1;ratioP1;P1;durP2;ratioP2;P2;SDS_P1;SDS_P2;PMS_P1;PMS_P2;Temp;Humidity;BMP_temperature;BMP_pressure;BME280_temperature;BME280_humidity;BME280_pressure;Samples;Min_cycle;Max_cycle;Signal;HPM_P1;HPM_P2
2022/11/13 15:06:39;;;;;;;14.00;12.10;;;11.70;99.90;;;;;;4988407;28;20038;-93
2022/11/13 15:09:16;;;;;;;13.23;11.82;;;11.70;99.90;;;;;;4977086;28;20062;-83
2022/11/13 15:11:42;;;;;;;14.75;12.73;;;11.60;99.90;;;;;;4990918;28;20042;-92
2022/11/13 15:14:12;;;;;;;13.55;12.13;;;11.50;99.90;;;;;;4980624;28;20407;-94
2022/11/13 15:16:39;;;;;;;13.65;12.25;;;11.50;99.90;;;;;;4979576;28;20104;-95
2022/11/13 15:19:17;;;;;;;14.48;12.65;;;11.40;99.90;;;;;;4980317;28;20046;-94
2022/11/13 15:21:43;;;;;;;13.45;12.05;;;11.30;99.90;;;;;;4978810;28;20046;-94
2022/11/13 15:24:12;;;;;;;13.43;12.00;;;11.20;99.90;;;;;;4997999;28;20053;-93
2022/11/13 15:26:38;;;;;;;13.95;12.50;;;11.20;99.90;;;;;;4984043;28;20042;-94
2022/11/13 15:29:05;;;;;;;14.77;13.27;;;11.10;99.90;;;;;;4980032;28;20034;-94
2022/11/13 15:31:33;;;;;;;15.55;13.32;;;11.10;99.90;;;;;;4980967;28;20165;-95
2022/11/13 15:33:58;;;;;;;15.93;13.55;;;11.00;99.90;;;;;;4982184;28;20077;-95
2022/11/13 15:36:25;;;;;;;15.00;13.40;;;11.00;99.90;;;;;;4982958;28;20039;-95
2022/11/13 15:38:50;;;;;;;14.85;13.23;;;10.90;99.90;;;;;;5002307;28;20057;-94
2022/11/13 15:41:24;;;;;;;15.15;13.55;;;10.80;99.90;;;;;;4989578;28;20137;-94
2022/11/13 15:43:54;;;;;;;15.80;13.70;;;10.80;99.90;;;;;;4986557;28;20113;-94
2022/11/13 15:46:22;;;;;;;15.57;13.93;;;10.70;99.90;;;;;;4998189;28;20101;-96
2022/11/13 15:48:49;;;;;;;15.63;14.02;;;10.60;99.90;;;;;;4963799;28;20053;-95
2022/11/13 15:51:27;;;;;;;15.77;14.18;;;10.50;99.90;;;;;;4979898;28;20113;-94
2022/11/13 15:53:57;;;;;;;15.20;13.70;;;10.40;99.90;;;;;;4989591;28;20054;-93
2022/11/13 15:56:23;;;;;;;16.65;14.95;;;10.40;99.90;;;;;;4975556;28;20338;-93
2022/11/13 15:58:49;;;;;;;16.02;14.38;;;10.30;99.90;;;;;;4974109;28;20058;-95
2022/11/13 16:01:15;;;;;;;16.15;14.45;;;10.20;99.90;;;;;;4977403;28;20046;-93
2022/11/13 16:03:41;;;;;;;15.70;12.10;;;10.10;99.90;;;;;;4974369;28;20563;-94
2022/11/13 16:06:20;;;;;;;16.95;15.18;;;10.00;99.90;;;;;;4978600;28;20093;-95
2022/11/13 16:08:45;;;;;;;16.88;15.27;;;10.00;99.90;;;;;;4977666;28;20042;-94
2022/11/13 16:11:16;;;;;;;17.17;15.38;;;9.90;99.90;;;;;;4971749;28;20066;-95
2022/11/13 16:13:42;;;;;;;15.68;10.85;;;9.80;99.90;;;;;;4994385;28;20128;-95
2022/11/13 16:16:19;;;;;;;17.48;15.77;;;9.70;99.90;;;;;;4992276;28;20031;-95
2022/11/13 16:18:44;;;;;;;17.45;15.07;;;9.70;99.90;;;;;;4971635;28;20046;-95
2022/11/13 16:21:12;;;;;;;16.45;14.75;;;9.60;99.90;;;;;;4973148;28;20054;-95
2022/11/13 16:23:38;;;;;;;17.65;15.75;;;9.50;99.90;;;;;;4974430;28;20038;-94
2022/11/13 16:26:04;;;;;;;17.08;15.25;;;9.40;99.90;;;;;;4957940;28;20046;-95
2022/11/13 16:28:30;;;;;;;18.15;16.35;;;9.30;99.90;;;;;;4991307;28;20045;-95
2022/11/13 16:30:56;;;;;;;18.10;16.30;;;9.20;99.90;;;;;;4993187;28;20125;-93
2022/11/13 16:33:22;;;;;;;18.40;16.50;;;9.20;99.90;;;;;;4980176;28;20082;-94
2022/11/13 16:35:48;;;;;;;18.80;17.00;;;9.10;99.90;;;;;;4982994;28;20743;-95
2022/11/13 16:38:14;;;;;;;18.98;17.02;;;9.10;99.90;;;;;;4986683;28;20042;-95
2022/11/13 16:40:41;;;;;;;19.20;17.30;;;9.10;99.90;;;;;;4965098;28;20034;-94
2022/11/13 16:43:08;;;;;;;19.40;17.52;;;9.00;99.90;;;;;;4964844;28;20074;-96
2022/11/13 16:45:36;;;;;;;17.05;12.98;;;9.00;99.90;;;;;;4967346;28;20046;-94
2022/11/13 16:48:02;;;;;;;19.88;17.77;;;8.90;99.90;;;;;;4984392;28;20038;-94
2022/11/13 16:50:30;;;;;;;20.13;18.02;;;8.90;99.90;;;;;;4968002;28;20557;-93
2022/11/13 16:52:56;;;;;;;17.15;12.68;;;8.90;99.90;;;;;;4969734;28;20023;-94
2022/11/13 16:55:22;;;;;;;17.40;12.02;;;8.80;99.90;;;;;;4967922;28;20023;-94
2022/11/13 16:57:47;;;;;;;20.42;18.35;;;8.80;99.90;;;;;;4985867;28;20046;-94
2022/11/13 17:00:15;;;;;;;20.50;18.42;;;8.80;99.90;;;;;;4982067;28;20054;-93
2022/11/13 17:02:41;;;;;;;18.83;12.25;;;8.90;99.90;;;;;;4964936;28;20040;-94
2022/11/13 17:05:12;;;;;;;20.55;18.45;;;8.80;99.90;;;;;;4968810;28;20073;-93
2022/11/13 17:07:38;;;;;;;20.77;18.77;;;8.80;99.90;;;;;;4984150;28;20052;-95
2022/11/13 17:10:04;;;;;;;19.88;17.98;;;8.80;99.90;;;;;;4984202;28;20125;-94
2022/11/13 17:12:30;;;;;;;20.13;18.23;;;8.80;99.90;;;;;;4982417;28;20524;-94
2022/11/13 17:14:56;;;;;;;20.05;18.05;;;8.80;99.90;;;;;;5004775;28;20117;-93
2022/11/13 17:17:21;;;;;;;20.35;18.35;;;8.80;99.90;;;;;;4980366;28;20084;-95
2022/11/13 17:19:47;;;;;;;19.33;17.42;;;8.70;99.90;;;;;;4976784;28;20043;-94
2022/11/13 17:22:13;;;;;;;20.33;18.35;;;8.70;99.90;;;;;;4981127;28;20038;-94
2022/11/13 17:24:39;;;;;;;15.88;10.88;;;8.70;99.90;;;;;;4980140;28;20046;-96
2022/11/13 17:27:05;;;;;;;19.08;12.52;;;8.60;99.90;;;;;;4978914;28;20034;-95
2022/11/13 17:29:31;;;;;;;20.27;18.25;;;8.50;99.90;;;;;;4994738;28;20112;-94
2022/11/13 17:31:57;;;;;;;19.67;17.67;;;8.50;99.90;;;;;;4978047;28;20066;-94
2022/11/13 17:34:24;;;;;;;19.25;12.48;;;8.50;99.90;;;;;;4994941;28;20039;-94
2022/11/13 17:36:50;;;;;;;16.40;11.23;;;8.40;99.90;;;;;;4994246;28;20125;-94
2022/11/13 17:39:16;;;;;;;17.27;12.65;;;8.40;99.90;;;;;;4982818;28;20070;-95
2022/11/13 17:41:41;;;;;;;22.40;17.70;;;8.30;99.90;;;;;;4994085;28;20053;-93
2022/11/13 17:44:07;;;;;;;35.95;28.60;;;8.30;99.90;;;;;;4975039;28;20042;-85
2022/11/13 17:46:33;;;;;;;17.70;11.63;;;8.30;99.90;;;;;;4991640;28;20399;-93
2022/11/13 17:48:58;;;;;;;19.67;17.58;;;8.40;99.90;;;;;;4978504;28;20066;-94
2022/11/13 17:51:24;;;;;;;19.83;17.50;;;8.40;99.90;;;;;;4981822;28;20045;-93
2022/11/13 17:53:49;;;;;;;20.00;18.00;;;8.40;99.90;;;;;;4982356;28;20534;-95
2022/11/13 17:56:16;;;;;;;16.88;12.57;;;8.40;99.90;;;;;;4981562;28;20187;-94
2022/11/13 17:58:44;;;;;;;16.50;11.60;;;8.30;99.90;;;;;;4999735;28;20482;-94
2022/11/13 18:01:15;;;;;;;19.33;17.33;;;8.30;99.90;;;;;;4972074;28;20043;-88
2022/11/13 18:03:40;;;;;;;;;;;8.30;99.90;;;;;;4953044;28;20046;-91
2022/11/13 18:06:09;;;;;;;19.27;12.55;;;8.20;99.90;;;;;;4956609;28;20024;-87
2022/11/13 18:08:37;;;;;;;18.02;11.15;;;8.20;99.90;;;;;;4956878;28;20045;-89
2022/11/13 18:11:08;;;;;;;19.02;13.27;;;8.20;99.90;;;;;;4972776;28;20080;-89
2022/11/13 18:13:34;;;;;;;19.23;17.33;;;8.20;99.90;;;;;;4956131;28;20858;-89
2022/11/13 18:16:13;;;;;;;18.45;13.40;;;8.20;99.90;;;;;;4970129;28;20042;-89
2022/11/13 18:18:39;;;;;;;19.48;13.82;;;8.10;99.90;;;;;;4966359;28;20062;-89
2022/11/13 18:21:17;;;;;;;20.08;17.98;;;8.10;99.90;;;;;;4975842;28;20107;-93
2022/11/13 18:23:42;;;;;;;19.55;17.58;;;8.10;99.90;;;;;;4979307;28;20093;-94
2022/11/13 18:26:14;;;;;;;18.58;13.45;;;8.10;99.90;;;;;;4972115;28;20046;-90
2022/11/13 18:28:40;;;;;;;18.15;12.82;;;8.10;99.90;;;;;;4956183;28;20042;-91
2022/11/13 18:31:08;;;;;;;20.45;18.23;;;8.00;99.90;;;;;;4974288;28;20034;-92
2022/11/13 18:33:34;;;;;;;20.77;18.67;;;8.10;99.90;;;;;;4967558;28;20057;-90
2022/11/13 18:36:00;;;;;;;21.15;18.98;;;8.10;99.90;;;;;;4973141;28;20038;-89
2022/11/13 18:38:26;;;;;;;19.25;14.13;;;8.10;99.90;;;;;;4974221;28;20066;-89
2022/11/13 18:41:04;;;;;;;18.20;11.98;;;8.00;99.90;;;;;;4958053;28;20069;-87
2022/11/13 18:43:30;;;;;;;18.83;13.63;;;8.00;99.90;;;;;;4956630;28;20075;-89
2022/11/13 18:46:03;;;;;;;18.48;13.55;;;7.90;99.90;;;;;;4971901;28;20038;-90
2022/11/13 18:48:34;;;;;;;19.05;13.63;;;7.90;99.90;;;;;;4970033;28;20406;-87
2022/11/13 18:51:02;;;;;;;21.83;14.02;;;7.80;99.90;;;;;;4956439;28;20034;-88
2022/11/13 18:53:28;;;;;;;21.70;14.63;;;7.80;99.90;;;;;;4955568;28;20042;-89
2022/11/13 18:56:02;;;;;;;20.00;14.35;;;7.60;99.90;;;;;;4955574;28;20442;-92
2022/11/13 18:58:29;;;;;;;22.73;20.27;;;7.70;99.90;;;;;;4955494;28;20515;-89
2022/11/13 19:00:55;;;;;;;22.80;20.40;;;7.60;99.90;;;;;;4972128;28;20046;-88
2022/11/13 19:03:22;;;;;;;23.83;14.35;;;7.60;99.90;;;;;;4972485;28;20077;-88
2022/11/13 19:05:48;;;;;;;21.40;13.98;;;7.50;99.90;;;;;;4969170;28;20046;-89
2022/11/13 19:08:14;;;;;;;24.50;21.85;;;7.40;99.90;;;;;;4970043;28;20432;-88
2022/11/13 19:10:40;;;;;;;22.48;14.98;;;7.40;99.90;;;;;;4971439;28;20911;-89
2022/11/13 19:13:07;;;;;;;23.63;15.68;;;7.30;99.90;;;;;;4968156;28;20042;-87
2022/11/13 19:15:37;;;;;;;23.33;13.77;;;7.30;99.90;;;;;;4968707;28;20038;-89
2022/11/13 19:18:04;;;;;;;23.50;15.80;;;7.20;99.90;;;;;;4970804;28;20038;-90
2022/11/13 19:20:29;;;;;;;25.98;23.17;;;7.20;99.90;;;;;;4987971;28;20042;-88
2022/11/13 19:22:55;;;;;;;26.65;14.75;;;7.20;99.90;;;;;;4957884;28;20046;-94
2022/11/13 19:25:20;;;;;;;23.80;16.30;;;7.10;99.90;;;;;;4955975;28;20603;-89
2022/11/13 19:27:46;;;;;;;24.42;16.73;;;7.00;99.90;;;;;;4969799;28;20073;-89
2022/11/13 19:30:12;;;;;;;23.27;16.35;;;7.00;99.90;;;;;;4971458;28;20042;-90
2022/11/13 19:32:38;;;;;;;25.42;16.48;;;6.90;99.90;;;;;;4970517;28;20043;-92
2022/11/13 19:35:04;;;;;;;27.55;17.52;;;6.90;99.90;;;;;;4953465;28;20049;-89
2022/11/13 19:37:29;;;;;;;24.23;16.35;;;6.90;99.90;;;;;;4957917;28;20113;-89
2022/11/13 19:39:55;;;;;;;27.23;17.90;;;6.80;99.90;;;;;;4955450;28;20030;-87
2022/11/13 19:42:21;;;;;;;26.73;15.45;;;6.80;99.90;;;;;;4954850;28;20038;-89
2022/11/13 19:44:46;;;;;;;25.40;15.25;;;6.70;99.90;;;;;;4970463;28;20369;-88
2022/11/13 19:47:12;;;;;;;25.35;16.05;;;6.70;99.90;;;;;;4971077;28;20037;-88
2022/11/13 19:49:38;;;;;;;27.88;16.08;;;6.70;99.90;;;;;;4972721;28;20815;-88
2022/11/13 19:52:05;;;;;;;26.27;18.02;;;6.60;99.90;;;;;;4971645;28;20046;-88
2022/11/13 19:54:30;;;;;;;30.00;18.13;;;6.60;99.90;;;;;;4956084;28;20132;-89
2022/11/13 19:56:56;;;;;;;26.63;15.32;;;6.50;99.90;;;;;;4955774;28;20081;-91
2022/11/13 19:59:22;;;;;;;27.20;18.15;;;6.50;99.90;;;;;;4968670;28;20443;-88
2022/11/13 20:01:47;;;;;;;29.13;17.92;;;6.50;99.90;;;;;;4958224;28;20080;-88
2022/11/13 20:04:13;;;;;;;29.70;20.40;;;6.40;99.90;;;;;;4957131;28;20145;-91
2022/11/13 20:06:39;;;;;;;28.60;18.42;;;6.40;99.90;;;;;;4974331;28;20418;-87
2022/11/13 20:09:05;;;;;;;27.23;16.30;;;6.40;99.90;;;;;;4975890;28;20080;-89
2022/11/13 20:11:32;;;;;;;29.98;16.35;;;6.30;99.90;;;;;;4986435;28;20394;-93
2022/11/13 20:13:58;;;;;;;27.42;16.00;;;6.20;99.90;;;;;;4990152;28;20038;-94
2022/11/13 20:16:24;;;;;;;29.33;16.83;;;6.20;99.90;;;;;;4987717;28;20062;-95
2022/11/13 20:18:51;;;;;;;29.50;16.38;;;6.00;99.90;;;;;;4988362;28;20467;-90
2022/11/13 20:21:24;;;;;;;29.00;17.30;;;6.10;99.90;;;;;;4974368;28;20097;-87
2022/11/13 20:23:51;;;;;;;27.90;16.08;;;6.00;99.90;;;;;;4957249;28;20450;-89
2022/11/13 20:26:17;;;;;;;32.17;17.85;;;6.00;99.90;;;;;;4976314;28;20090;-89
2022/11/13 20:28:43;;;;;;;29.40;16.95;;;5.90;99.90;;;;;;4956920;28;20038;-90
2022/11/13 20:31:21;;;;;;;31.85;17.33;;;5.90;99.90;;;;;;4972481;28;20037;-91
2022/11/13 20:33:47;;;;;;;31.52;18.70;;;5.80;99.90;;;;;;4976084;28;20042;-92
2022/11/13 20:36:14;;;;;;;33.92;20.70;;;5.90;99.90;;;;;;4975418;28;20042;-94
2022/11/13 20:38:42;;;;;;;34.25;20.27;;;5.80;99.90;;;;;;4963882;28;20105;-95
2022/11/13 20:41:10;;;;;;;38.65;21.35;;;5.90;99.90;;;;;;4961212;28;20209;-88
2022/11/13 20:43:36;;;;;;;39.55;20.60;;;5.80;99.90;;;;;;4960838;28;20546;-93
2022/11/13 20:46:11;;;;;;;41.25;20.48;;;5.80;99.90;;;;;;4976359;28;20038;-91
2022/11/13 20:48:37;;;;;;;39.25;21.05;;;5.80;99.90;;;;;;4992309;28;20065;-91
2022/11/13 20:51:26;;;;;;;41.83;22.02;;;5.80;99.90;;;;;;4961274;28;20085;-91
2022/11/13 20:53:52;;;;;;;38.28;21.55;;;5.80;99.90;;;;;;4973664;28;20054;-93
2022/11/13 20:56:19;;;;;;;41.03;22.00;;;5.80;99.90;;;;;;4962528;28;20046;-92
2022/11/13 20:58:46;;;;;;;41.58;22.48;;;5.80;99.90;;;;;;4980430;28;20436;-91
2022/11/13 21:01:13;;;;;;;39.35;20.90;;;5.80;99.90;;;;;;4958970;28;20034;-93
2022/11/13 21:03:41;;;;;;;41.08;20.90;;;5.80;99.90;;;;;;4977860;28;20142;-93
2022/11/13 21:06:15;;;;;;;41.22;22.55;;;5.80;99.90;;;;;;4972038;28;20050;-89
2022/11/13 21:08:41;;;;;;;38.80;20.75;;;5.80;99.90;;;;;;4973920;28;20042;-91
2022/11/13 21:11:12;;;;;;;39.65;22.48;;;5.90;99.90;;;;;;4961409;28;20078;-95
2022/11/13 21:13:37;;;;;;;37.03;18.20;;;6.00;99.90;;;;;;4959915;28;20050;-94
2022/11/13 21:16:05;;;;;;;36.20;18.40;;;6.00;99.90;;;;;;4960995;28;20038;-92
2022/11/13 21:18:31;;;;;;;33.40;17.98;;;5.90;99.90;;;;;;4974983;28;20057;-91
2022/11/13 21:21:04;;;;;;;37.20;20.98;;;5.90;99.90;;;;;;4975863;28;20156;-92
2022/11/13 21:23:29;;;;;;;37.30;20.00;;;5.90;99.90;;;;;;4957421;28;20046;-88
2022/11/13 21:25:59;;;;;;;37.88;20.25;;;6.00;99.90;;;;;;4974873;28;20161;-92
2022/11/13 21:28:25;;;;;;;36.28;18.30;;;6.00;99.90;;;;;;4967945;28;20209;-89
2022/11/13 21:30:51;;;;;;;39.13;19.70;;;6.00;99.90;;;;;;4974975;28;20537;-90
2022/11/13 21:33:16;;;;;;;37.83;21.20;;;6.00;99.90;;;;;;4974503;28;20065;-90
2022/11/13 21:35:42;;;;;;;32.35;17.13;;;6.10;99.90;;;;;;4974189;28;20040;-94
2022/11/13 21:38:08;;;;;;;34.50;17.67;;;6.10;99.90;;;;;;4960859;28;20101;-95
2022/11/13 21:40:33;;;;;;;33.90;18.30;;;6.00;99.90;;;;;;4979753;28;20050;-93
2022/11/13 21:42:59;;;;;;;36.78;17.88;;;6.00;99.90;;;;;;4980743;28;20104;-91
2022/11/13 21:45:25;;;;;;;36.15;20.70;;;6.10;99.90;;;;;;4963740;28;20372;-92
2022/11/13 21:47:51;;;;;;;38.00;19.75;;;6.10;99.90;;;;;;4974234;28;20956;-91
2022/11/13 21:50:17;;;;;;;35.10;17.83;;;6.10;99.90;;;;;;4978144;28;20019;-93
2022/11/13 21:52:43;;;;;;;34.90;17.45;;;6.10;99.90;;;;;;4963441;28;20038;-89
2022/11/13 21:55:09;;;;;;;32.88;16.60;;;6.20;99.90;;;;;;4991557;28;20039;-93
2022/11/13 21:57:35;;;;;;;39.92;21.20;;;6.30;99.90;;;;;;4974055;28;20039;-92
2022/11/13 22:00:01;;;;;;;33.00;17.40;;;6.20;99.90;;;;;;4992527;28;20478;-87
2022/11/13 22:02:26;;;;;;;37.55;19.90;;;6.20;99.90;;;;;;4966150;28;20042;-90
2022/11/13 22:04:52;;;;;;;35.47;18.23;;;6.20;99.90;;;;;;4981040;28;20046;-93
2022/11/13 22:07:17;;;;;;;32.60;16.83;;;6.20;99.90;;;;;;4962442;28;20093;-93
2022/11/13 22:09:43;;;;;;;36.33;18.30;;;6.30;99.90;;;;;;4974864;28;20121;-93
2022/11/13 22:12:09;;;;;;;34.92;16.85;;;6.30;99.90;;;;;;4977478;28;20042;-91
2022/11/13 22:14:34;;;;;;;37.53;16.65;;;6.30;99.90;;;;;;4979428;28;20065;-92
2022/11/13 22:17:00;;;;;;;36.03;17.35;;;6.30;99.90;;;;;;4979002;28;20038;-92
2022/11/13 22:19:26;;;;;;;37.35;18.50;;;6.30;99.90;;;;;;4979366;28;20511;-93
2022/11/13 22:21:52;;;;;;;35.72;16.95;;;6.30;99.90;;;;;;4991506;28;20395;-90
2022/11/13 22:24:18;;;;;;;39.42;19.25;;;6.30;99.90;;;;;;4978888;28;20046;-89
2022/11/13 22:26:45;;;;;;;36.08;16.73;;;6.30;99.90;;;;;;4974483;28;20105;-92
2022/11/13 22:29:11;;;;;;;50.35;34.92;;;6.40;99.90;;;;;;4987564;28;20477;-88
2022/11/13 22:31:38;;;;;;;44.38;18.65;;;6.40;99.90;;;;;;4992470;28;20039;-95
2022/11/13 22:34:04;;;;;;;39.72;17.50;;;6.40;99.90;;;;;;4975289;28;20062;-89
2022/11/13 22:36:35;;;;;;;39.75;20.50;;;6.40;99.90;;;;;;4977819;28;20049;-90
2022/11/13 22:39:01;;;;;;;36.97;17.15;;;6.40;99.90;;;;;;4977596;28;20042;-93
2022/11/13 22:41:30;;;;;;;38.80;16.65;;;6.40;99.90;;;;;;4971678;28;20125;-90
2022/11/13 22:44:05;;;;;;;41.28;17.60;;;6.40;99.90;;;;;;4971899;28;20781;-93
2022/11/13 22:46:33;;;;;;;39.90;19.35;;;6.50;99.90;;;;;;4972275;28;20076;-91
2022/11/13 22:49:00;;;;;;;37.63;17.88;;;6.50;99.90;;;;;;4971636;28;20046;-93
2022/11/13 22:51:29;;;;;;;36.22;15.40;;;6.50;99.90;;;;;;4954760;28;20042;-91
2022/11/13 22:53:57;;;;;;;38.58;18.27;;;6.50;99.90;;;;;;4956218;28;20133;-90
2022/11/13 22:56:25;;;;;;;42.22;19.98;;;6.50;99.90;;;;;;4975187;28;20038;-92
2022/11/13 22:58:52;;;;;;;43.33;20.85;;;6.50;99.90;;;;;;4975088;28;20049;-88
2022/11/13 23:01:24;;;;;;;40.85;20.33;;;6.50;99.90;;;;;;4992705;28;20097;-90
2022/11/13 23:03:51;;;;;;;41.55;22.10;;;6.60;99.90;;;;;;4969901;28;20038;-88
2022/11/13 23:06:20;;;;;;;42.28;21.77;;;6.60;99.90;;;;;;4967401;28;20364;-89
2022/11/13 23:08:47;;;;;;;44.20;21.50;;;6.60;99.90;;;;;;4974304;28;20120;-90
2022/11/13 23:11:21;;;;;;;39.15;19.23;;;6.50;99.90;;;;;;4972482;28;20042;-89
2022/11/13 23:13:53;;;;;;;40.40;18.80;;;6.70;99.90;;;;;;4969266;28;20046;-91
2022/11/13 23:16:21;;;;;;;39.85;18.50;;;6.70;99.90;;;;;;4956760;28;20057;-93
2022/11/13 23:18:48;;;;;;;41.50;16.52;;;6.70;99.90;;;;;;4970550;28;20526;-94
2022/11/13 23:21:15;;;;;;;43.95;21.73;;;6.70;99.90;;;;;;4947861;28;20047;-89
2022/11/13 23:23:41;;;;;;;40.03;17.77;;;6.70;99.90;;;;;;4954700;28;20062;-91
2022/11/13 23:26:08;;;;;;;56.55;37.53;;;6.70;99.90;;;;;;4975173;28;20042;-88
2022/11/13 23:28:35;;;;;;;40.50;18.98;;;6.80;99.90;;;;;;4974247;28;20043;-94
2022/11/13 23:31:01;;;;;;;41.95;18.27;;;6.80;99.90;;;;;;4972123;28;20038;-88
2022/11/13 23:33:27;;;;;;;40.90;20.88;;;6.80;99.90;;;;;;4951960;28;20045;-94
2022/11/13 23:35:52;;;;;;;43.47;21.58;;;6.80;99.90;;;;;;4970204;28;20035;-89
2022/11/13 23:38:18;;;;;;;44.42;19.83;;;6.80;99.90;;;;;;4957166;28;20047;-89
2022/11/13 23:40:44;;;;;;;42.05;18.92;;;6.80;99.90;;;;;;4978220;28;20057;-94
2022/11/13 23:43:10;;;;;;;38.78;21.65;;;6.80;99.90;;;;;;4980304;28;20035;-89
2022/11/13 23:45:36;;;;;;;43.10;18.00;;;6.80;99.90;;;;;;4973103;28;20051;-88
2022/11/13 23:48:02;;;;;;;40.90;18.65;;;6.80;99.90;;;;;;4975289;28;20039;-93
2022/11/13 23:50:28;;;;;;;37.65;20.52;;;6.80;99.90;;;;;;4964850;28;20063;-95
2022/11/13 23:52:54;;;;;;;39.00;20.60;;;6.80;99.90;;;;;;4961933;28;20066;-94
2022/11/13 23:55:21;;;;;;;41.22;22.23;;;6.90;99.90;;;;;;4983798;28;20087;-93
2022/11/13 23:57:47;;;;;;;38.08;21.08;;;6.90;99.90;;;;;;4977753;28;20463;-93
